Time;durP1;ratioP1;P1;durP2;ratioP2;P2;SDS_P1;SDS_P2;PMS_P1;PMS_P2;Temp;Humidity;BMP_temperature;BMP_pressure;BME280_temperature;BME280_humidity;BME280_pressure;Samples;Min_cycle;Max_cycle;Signal;HPM_P1;HPM_P2
2023/04/24 00:01:31;;;;;;;0.20;0.20;;;;;;;13.90;95.99;100047.91;4995723;28;20031;-62
2023/04/24 00:03:59;;;;;;;0.20;0.20;;;;;;;13.87;96.23;100048.72;4995474;28;20030;-62
2023/04/24 00:06:32;;;;;;;0.20;0.20;;;;;;;13.81;96.15;100039.09;4995470;28;20037;-62
2023/04/24 00:08:58;;;;;;;;;;;;;;;13.91;96.26;100032.78;4996558;28;20030;-62
2023/04/24 00:11:24;;;;;;;0.20;0.20;;;;;;;13.89;96.10;100029.53;4995202;28;20253;-62
2023/04/24 00:13:54;;;;;;;0.20;0.20;;;;;;;13.83;96.77;100025.50;4995523;28;20041;-62
2023/04/24 00:16:20;;;;;;;0.20;0.20;;;;;;;13.83;96.98;100028.31;4995629;28;20125;-62
2023/04/24 00:18:47;;;;;;;0.20;0.20;;;;;;;13.75;97.90;100023.88;4995304;28;20434;-63
2023/04/24 00:21:13;;;;;;;0.20;0.20;;;;;;;13.71;98.28;100035.00;4994844;28;20085;-62
2023/04/24 00:23:39;;;;;;;0.20;0.20;;;;;;;13.77;99.44;100027.06;4994969;28;20037;-62
2023/04/24 00:26:04;;;;;;;0.20;0.20;;;;;;;13.88;99.20;100027.94;4995095;28;20042;-62
2023/04/24 00:28:30;;;;;;;0.20;0.20;;;;;;;13.79;98.90;100016.28;4995403;28;20117;-62
2023/04/24 00:30:56;;;;;;;0.20;0.20;;;;;;;13.81;100.00;100016.72;4994710;28;20493;-63
2023/04/24 00:33:23;;;;;;;0.20;0.20;;;;;;;13.83;99.90;100026.31;4995292;28;20042;-63
2023/04/24 00:35:49;;;;;;;0.20;0.20;;;;;;;13.89;99.44;100019.16;4994925;28;20034;-62
2023/04/24 00:38:16;;;;;;;0.20;0.20;;;;;;;13.92;99.13;100006.41;4994976;28;20026;-62
2023/04/24 00:40:45;;;;;;;0.20;0.20;;;;;;;13.91;99.46;100009.59;4995530;28;20107;-63
2023/04/24 00:43:11;;;;;;;0.20;0.20;;;;;;;13.91;99.39;100018.00;4995413;28;20030;-63
2023/04/24 00:45:41;;;;;;;0.20;0.20;;;;;;;13.85;100.00;100009.16;4996309;28;20038;-62
2023/04/24 00:48:07;;;;;;;0.20;0.20;;;;;;;13.83;100.00;100003.13;4995376;28;20464;-62
2023/04/24 00:50:35;;;;;;;0.20;0.20;;;;;;;13.88;100.00;99997.19;4994689;28;20030;-62
2023/04/24 00:53:01;;;;;;;0.20;0.20;;;;;;;13.94;99.65;99998.41;4994639;28;20026;-62
2023/04/24 00:55:28;;;;;;;0.20;0.20;;;;;;;13.89;99.08;100002.38;4994241;28;20044;-62
2023/04/24 00:57:54;;;;;;;0.20;0.20;;;;;;;13.86;98.56;100007.97;4994542;28;20034;-62
2023/04/24 01:00:23;;;;;;;0.20;0.20;;;;;;;13.81;98.97;100003.53;4994458;28;20037;-62
2023/04/24 01:02:54;;;;;;;0.20;0.20;;;;;;;13.77;99.09;100004.69;4996010;28;20026;-63
2023/04/24 01:05:20;;;;;;;0.20;0.20;;;;;;;13.85;98.33;100000.78;4994917;28;20031;-63
2023/04/24 01:07:48;;;;;;;0.20;0.20;;;;;;;13.82;98.22;99984.75;4994621;28;20441;-63
2023/04/24 01:10:15;;;;;;;0.20;0.20;;;;;;;13.78;98.21;99978.34;4994578;28;20034;-62
2023/04/24 01:12:43;;;;;;;0.20;0.20;;;;;;;13.80;99.18;99981.56;4994269;28;20031;-63
2023/04/24 01:15:09;;;;;;;0.20;0.20;;;;;;;13.94;98.83;99970.44;4994201;28;20027;-62
2023/04/24 01:17:35;;;;;;;0.20;0.20;;;;;;;13.95;98.49;99960.06;4994391;28;20506;-62
2023/04/24 01:20:03;;;;;;;0.20;0.20;;;;;;;13.91;98.17;99965.66;4994331;28;20038;-63
2023/04/24 01:22:34;;;;;;;0.20;0.20;;;;;;;13.87;98.33;99962.03;4994363;28;20385;-62
2023/04/24 01:25:01;;;;;;;0.20;0.20;;;;;;;13.82;98.79;99948.41;4994562;28;20425;-62
2023/04/24 01:27:26;;;;;;;0.20;0.20;;;;;;;13.79;99.29;99933.19;4994261;28;20023;-62
2023/04/24 01:29:54;;;;;;;0.20;0.20;;;;;;;13.83;99.85;99941.63;4993705;28;20157;-63
2023/04/24 01:32:20;;;;;;;0.20;0.20;;;;;;;13.86;99.34;99932.47;4994507;28;20358;-63
2023/04/24 01:34:46;;;;;;;0.20;0.20;;;;;;;13.85;98.65;99933.66;4993833;28;20033;-62
2023/04/24 01:37:12;;;;;;;0.20;0.20;;;;;;;13.82;99.61;99926.84;4995082;28;20030;-62
2023/04/24 01:39:37;;;;;;;0.20;0.20;;;;;;;13.87;99.44;99925.66;4993736;28;20030;-62
2023/04/24 01:42:05;;;;;;;0.20;0.20;;;;;;;13.89;99.59;99924.06;4993715;28;20034;-63
2023/04/24 01:44:33;;;;;;;0.20;0.20;;;;;;;13.79;99.20;99919.22;4993653;28;20034;-62
2023/04/24 01:47:03;;;;;;;0.20;0.20;;;;;;;13.80;99.63;99917.25;4993884;28;20478;-62
2023/04/24 01:49:31;;;;;;;0.20;0.20;;;;;;;13.82;100.00;99921.25;4993860;28;20366;-62
2023/04/24 01:51:57;;;;;;;0.20;0.20;;;;;;;13.79;100.00;99910.03;4993497;28;20089;-62
2023/04/24 01:54:22;;;;;;;0.20;0.20;;;;;;;13.75;100.00;99918.41;4993794;28;20038;-62
2023/04/24 01:56:48;;;;;;;0.20;0.20;;;;;;;13.74;100.00;99910.41;4994037;28;20034;-63
2023/04/24 01:59:16;;;;;;;0.20;0.20;;;;;;;13.71;100.00;99919.59;4993093;28;20057;-63
2023/04/24 02:01:42;;;;;;;0.20;0.20;;;;;;;13.68;100.00;99911.97;4993673;28;20037;-62
2023/04/24 02:04:08;;;;;;;0.20;0.20;;;;;;;13.70;100.00;99892.81;4993350;28;20496;-62
2023/04/24 02:06:34;;;;;;;0.20;0.20;;;;;;;13.70;100.00;99899.22;4993379;28;20053;-63
2023/04/24 02:09:02;;;;;;;0.20;0.20;;;;;;;13.78;100.00;99908.44;4993308;28;20030;-63
2023/04/24 02:11:28;;;;;;;0.20;0.20;;;;;;;13.71;100.00;99914.78;4993758;28;20069;-61
2023/04/24 02:13:53;;;;;;;0.20;0.20;;;;;;;13.65;100.00;99904.38;4993405;28;20030;-62
2023/04/24 02:16:19;;;;;;;0.20;0.20;;;;;;;13.73;100.00;99889.22;4993209;28;20117;-62
2023/04/24 02:18:44;;;;;;;0.20;0.20;;;;;;;13.68;100.00;99879.22;4993101;28;20031;-63
2023/04/24 02:21:12;;;;;;;0.20;0.20;;;;;;;13.66;100.00;99875.22;4993716;28;20026;-63
2023/04/24 02:23:38;;;;;;;0.20;0.20;;;;;;;13.63;100.00;99871.19;4993147;28;20124;-63
2023/04/24 02:26:04;;;;;;;0.20;0.20;;;;;;;13.70;100.00;99864.88;4993907;28;20065;-63
2023/04/24 02:28:29;;;;;;;0.20;0.20;;;;;;;13.62;100.00;99853.63;4993118;28;20100;-63
2023/04/24 02:30:55;;;;;;;0.20;0.20;;;;;;;13.66;100.00;99859.25;4992941;28;20088;-62
2023/04/24 02:33:22;;;;;;;0.20;0.20;;;;;;;13.63;98.70;99849.66;4993850;28;20030;-62
2023/04/24 02:35:48;;;;;;;0.20;0.20;;;;;;;13.69;99.26;99854.84;4993046;28;20121;-63
2023/04/24 02:38:15;;;;;;;0.20;0.20;;;;;;;13.73;97.84;99856.47;4992842;28;20123;-62
2023/04/24 02:40:41;;;;;;;0.20;0.20;;;;;;;13.41;97.53;99819.97;4993060;28;20034;-62
2023/04/24 02:43:09;;;;;;;0.20;0.20;;;;;;;13.50;98.08;99834.41;4992830;28;20502;-63
2023/04/24 02:45:34;;;;;;;0.20;0.20;;;;;;;13.59;96.97;99843.25;4995165;28;20035;-63
2023/04/24 02:48:00;;;;;;;0.20;0.20;;;;;;;13.42;97.05;99843.94;4996897;28;20049;-63
2023/04/24 02:50:29;;;;;;;0.20;0.20;;;;;;;13.47;97.21;99842.75;4996753;28;20034;-63
2023/04/24 02:52:56;;;;;;;0.20;0.20;;;;;;;13.43;97.20;99837.16;4996673;28;20026;-63
2023/04/24 02:55:22;;;;;;;0.20;0.20;;;;;;;13.31;96.00;99826.28;4997090;28;20113;-63
2023/04/24 02:57:47;;;;;;;0.20;0.20;;;;;;;13.30;96.25;99831.09;4997349;28;20429;-63
2023/04/24 03:00:13;;;;;;;0.20;0.20;;;;;;;13.28;95.60;99829.88;4996946;28;20508;-63
2023/04/24 03:02:38;;;;;;;0.20;0.20;;;;;;;13.38;94.52;99820.78;4996740;28;20041;-62
2023/04/24 03:05:07;;;;;;;0.20;0.20;;;;;;;13.30;90.12;99822.69;4996607;28;20030;-63
2023/04/24 03:07:32;;;;;;;0.20;0.20;;;;;;;13.38;88.52;99822.78;4997144;28;20030;-63
2023/04/24 03:09:58;;;;;;;0.20;0.20;;;;;;;13.31;89.33;99813.13;4996539;28;20473;-63
2023/04/24 03:12:24;;;;;;;0.20;0.20;;;;;;;13.28;88.19;99810.34;4996454;28;20022;-63
2023/04/24 03:14:49;;;;;;;0.20;0.20;;;;;;;13.37;89.21;99813.59;4996678;28;20089;-63
2023/04/24 03:17:15;;;;;;;0.20;0.20;;;;;;;13.36;89.52;99811.97;4996461;28;20030;-63
2023/04/24 03:19:45;;;;;;;0.20;0.20;;;;;;;13.36;89.93;99806.38;4996566;28;20033;-62
2023/04/24 03:22:12;;;;;;;0.20;0.20;;;;;;;13.44;90.07;99804.44;4996657;28;20052;-63
2023/04/24 03:24:40;;;;;;;0.20;0.20;;;;;;;13.30;89.88;99785.59;4996831;28;20442;-63
2023/04/24 03:27:05;;;;;;;0.20;0.20;;;;;;;13.22;90.69;99783.97;4996204;28;20022;-63
2023/04/24 03:29:31;;;;;;;0.20;0.20;;;;;;;13.22;89.73;99795.94;4997756;28;20037;-63
2023/04/24 03:31:56;;;;;;;0.20;0.20;;;;;;;13.58;87.72;99785.75;4999754;28;20033;-62
2023/04/24 03:34:22;;;;;;;0.20;0.20;;;;;;;13.41;89.04;99797.63;4999326;28;20030;-63
2023/04/24 03:36:48;;;;;;;0.20;0.20;;;;;;;13.38;89.68;99795.63;5000175;28;20026;-63
2023/04/24 03:39:13;;;;;;;0.20;0.20;;;;;;;13.39;89.88;99786.03;5000327;28;20030;-63
2023/04/24 03:41:41;;;;;;;0.20;0.20;;;;;;;13.32;90.47;99780.44;4999574;28;20053;-63
2023/04/24 03:44:06;;;;;;;0.20;0.20;;;;;;;13.35;90.89;99794.41;4999400;28;20384;-63
2023/04/24 03:46:34;;;;;;;0.20;0.20;;;;;;;13.30;90.99;99782.78;4999098;28;20026;-63
2023/04/24 03:49:00;;;;;;;0.20;0.20;;;;;;;13.30;91.76;99785.59;4999347;28;20380;-63
2023/04/24 03:51:30;;;;;;;0.20;0.20;;;;;;;13.31;91.66;99787.97;4999334;28;20030;-63
2023/04/24 03:53:57;;;;;;;0.20;0.20;;;;;;;13.30;92.15;99780.00;4999240;28;20034;-63
2023/04/24 03:56:25;;;;;;;0.20;0.20;;;;;;;13.37;92.76;99785.63;4998846;28;20030;-62
2023/04/24 03:58:50;;;;;;;0.20;0.20;;;;;;;13.45;92.04;99792.84;4999366;28;20350;-63
2023/04/24 04:01:16;;;;;;;0.20;0.20;;;;;;;13.39;91.17;99785.25;4999160;28;20121;-62
2023/04/24 04:03:42;;;;;;;0.20;0.20;;;;;;;13.31;92.40;99776.81;4998869;28;20108;-63
2023/04/24 04:06:07;;;;;;;0.20;0.20;;;;;;;13.31;92.46;99787.19;4999265;28;20124;-62
2023/04/24 04:08:35;;;;;;;0.20;0.20;;;;;;;13.32;94.09;99786.00;4999234;28;20384;-63
2023/04/24 04:11:03;;;;;;;0.20;0.20;;;;;;;13.31;94.36;99787.97;4999239;28;20033;-63
2023/04/24 04:13:28;;;;;;;0.20;0.20;;;;;;;13.29;94.09;99781.19;5015959;28;20030;-63
2023/04/24 04:15:54;;;;;;;0.20;0.20;;;;;;;13.24;94.20;99781.56;4998554;28;20026;-63
2023/04/24 04:18:20;;;;;;;0.20;0.20;;;;;;;13.27;94.64;99781.59;4998513;28;20085;-62
2023/04/24 04:20:45;;;;;;;0.20;0.20;;;;;;;13.46;94.56;99772.09;4998746;28;20026;-63
2023/04/24 04:23:13;;;;;;;0.20;0.20;;;;;;;13.36;94.20;99778.44;4998750;28;20033;-63
2023/04/24 04:25:41;;;;;;;0.20;0.20;;;;;;;13.35;95.19;99771.25;4998614;28;20117;-63
2023/04/24 04:28:06;;;;;;;0.20;0.20;;;;;;;13.41;95.66;99777.25;4998604;28;20030;-63
2023/04/24 04:30:34;;;;;;;0.20;0.20;;;;;;;13.48;95.30;99769.72;4997921;28;20513;-63
2023/04/24 04:33:02;;;;;;;0.20;0.20;;;;;;;13.57;95.23;99774.94;4998905;28;20179;-63
2023/04/24 04:35:30;;;;;;;0.20;0.20;;;;;;;13.59;96.05;99776.16;4998745;28;20107;-63
2023/04/24 04:37:58;;;;;;;0.20;0.20;;;;;;;13.69;95.38;99780.19;4998964;28;20060;-63
2023/04/24 04:40:28;;;;;;;0.20;0.20;;;;;;;13.81;95.30;99781.81;4999325;28;20030;-63
2023/04/24 04:42:56;;;;;;;0.20;0.20;;;;;;;13.87;95.02;99763.47;4998887;28;20534;-63
2023/04/24 04:45:24;;;;;;;0.20;0.20;;;;;;;13.95;95.69;99770.66;4998062;28;20041;-63
2023/04/24 04:47:49;;;;;;;0.20;0.20;;;;;;;14.12;94.86;99780.31;4997970;28;20029;-63
2023/04/24 04:50:19;;;;;;;0.20;0.20;;;;;;;14.26;94.24;99779.53;4997938;28;20026;-64
2023/04/24 04:52:44;;;;;;;0.20;0.20;;;;;;;14.40;93.75;99773.94;4998139;28;20372;-63
2023/04/24 04:55:11;;;;;;;0.20;0.20;;;;;;;14.66;92.47;99779.19;4997796;28;20117;-63
2023/04/24 04:57:37;;;;;;;0.20;0.20;;;;;;;15.06;89.55;99788.34;5015358;28;20032;-64
2023/04/24 05:00:04;;;;;;;0.20;0.20;;;;;;;15.04;88.55;99781.56;5015498;28;20076;-63
2023/04/24 05:02:30;;;;;;;0.20;0.20;;;;;;;15.24;88.57;99793.94;5015239;28;20131;-63
2023/04/24 05:04:55;;;;;;;0.20;0.20;;;;;;;15.20;88.15;99796.75;4997593;28;20473;-63
2023/04/24 05:07:21;;;;;;;0.20;0.20;;;;;;;15.22;88.11;99801.94;4997064;28;20049;-63
2023/04/24 05:09:46;;;;;;;0.20;0.20;;;;;;;15.14;85.13;99801.16;4997490;28;20036;-63
2023/04/24 05:12:12;;;;;;;0.20;0.20;;;;;;;15.16;81.71;99807.16;4997751;28;20030;-63
2023/04/24 05:14:40;;;;;;;0.20;0.20;;;;;;;15.09;84.44;99795.97;4997043;28;20481;-63
2023/04/24 05:17:06;;;;;;;0.20;0.20;;;;;;;15.05;85.29;99797.16;4997213;28;20025;-64
2023/04/24 05:19:37;;;;;;;0.20;0.20;;;;;;;15.12;85.91;99786.72;4996895;28;20038;-63
2023/04/24 05:22:06;;;;;;;0.20;0.20;;;;;;;15.23;86.88;99772.69;4997771;28;20388;-63
2023/04/24 05:24:37;;;;;;;0.20;0.20;;;;;;;15.70;85.91;99791.00;4997206;28;20129;-62
2023/04/24 05:27:04;;;;;;;0.20;0.20;;;;;;;15.86;83.75;99795.34;4997045;28;20037;-62
2023/04/24 05:29:33;;;;;;;0.20;0.20;;;;;;;15.83;81.85;99784.94;4996559;28;20417;-63
2023/04/24 05:32:01;;;;;;;0.20;0.20;;;;;;;15.69;83.74;99795.00;4996888;28;20033;-63
2023/04/24 05:34:29;;;;;;;0.20;0.20;;;;;;;15.91;83.05;99794.91;4997115;28;20030;-63
2023/04/24 05:36:57;;;;;;;0.20;0.20;;;;;;;16.37;79.33;99796.66;5014592;28;20034;-62
2023/04/24 05:39:24;;;;;;;0.20;0.20;;;;;;;16.16;77.54;99795.56;4997141;28;20373;-63
2023/04/24 05:41:53;;;;;;;0.20;0.20;;;;;;;16.03;79.22;99794.44;4997241;28;20045;-62
2023/04/24 05:44:18;;;;;;;0.20;0.20;;;;;;;15.94;80.38;99797.72;4997208;28;20034;-62
2023/04/24 05:46:44;;;;;;;0.20;0.20;;;;;;;15.78;81.42;99803.00;4997471;28;20041;-62
2023/04/24 05:49:12;;;;;;;0.20;0.20;;;;;;;15.58;82.64;99801.84;5014534;28;20040;-62
2023/04/24 05:51:41;;;;;;;0.20;0.20;;;;;;;15.36;82.91;99784.28;4996862;28;20550;-62
2023/04/24 05:54:12;;;;;;;0.20;0.20;;;;;;;15.25;83.43;99780.72;5014396;28;20121;-62
2023/04/24 05:56:37;;;;;;;0.20;0.20;;;;;;;15.18;80.90;99785.13;4996764;28;20030;-62
2023/04/24 05:59:03;;;;;;;0.20;0.20;;;;;;;15.20;81.80;99779.13;4996252;28;20057;-62
2023/04/24 06:01:29;;;;;;;0.20;0.20;;;;;;;15.08;83.65;99780.34;4996452;28;20088;-62
2023/04/24 06:03:55;;;;;;;0.20;0.20;;;;;;;14.95;84.25;99784.75;5014024;28;20034;-62
2023/04/24 06:06:20;;;;;;;0.20;0.20;;;;;;;15.06;84.69;99777.13;4996545;28;20068;-62
2023/04/24 06:08:46;;;;;;;0.20;0.20;;;;;;;15.16;81.59;99781.13;4997117;28;20120;-62
2023/04/24 06:11:11;;;;;;;0.20;0.20;;;;;;;15.08;83.14;99785.16;4996882;28;20065;-62
2023/04/24 06:13:42;;;;;;;0.20;0.20;;;;;;;15.06;83.92;99779.94;4996523;28;20432;-62
2023/04/24 06:16:07;;;;;;;0.20;0.20;;;;;;;15.10;84.24;99777.16;4996517;28;20473;-63
2023/04/24 06:18:38;;;;;;;0.20;0.20;;;;;;;15.31;84.42;99779.09;4996540;28;20056;-62
2023/04/24 06:21:06;;;;;;;0.20;0.20;;;;;;;16.61;80.06;99767.56;4996092;28;20091;-62
2023/04/24 06:23:34;;;;;;;0.20;0.20;;;;;;;16.66;73.92;99767.13;4996268;28;20057;-62
2023/04/24 06:26:01;;;;;;;0.20;0.20;;;;;;;16.90;73.15;99779.41;4996331;28;20041;-62
2023/04/24 06:28:29;;;;;;;0.20;0.20;;;;;;;17.23;71.95;99769.44;4996210;28;20033;-62
2023/04/24 06:30:57;;;;;;;0.20;0.20;;;;;;;17.27;68.39;99769.41;4995801;28;20484;-62
2023/04/24 06:33:25;;;;;;;0.20;0.20;;;;;;;17.24;67.44;99779.44;5013561;28;20037;-62
2023/04/24 06:35:50;;;;;;;0.20;0.20;;;;;;;17.18;68.87;99800.81;4996204;28;20037;-62
2023/04/24 06:38:16;;;;;;;0.20;0.20;;;;;;;17.11;68.86;99795.25;4996877;28;20041;-63
2023/04/24 06:40:46;;;;;;;0.20;0.20;;;;;;;17.10;69.28;99788.06;4996109;28;20041;-62
2023/04/24 06:43:12;;;;;;;0.20;0.20;;;;;;;16.92;69.89;99787.41;4996410;28;20049;-62
2023/04/24 06:45:39;;;;;;;0.20;0.20;;;;;;;16.95;69.73;99783.78;4996112;28;20480;-62
2023/04/24 06:48:05;;;;;;;0.20;0.20;;;;;;;16.75;71.29;99789.16;4996466;28;20033;-62
2023/04/24 06:50:30;;;;;;;0.20;0.20;;;;;;;16.61;72.04;99766.78;4996239;28;20030;-63
2023/04/24 06:52:58;;;;;;;0.20;0.20;;;;;;;16.74;72.47;99791.19;4996698;28;20029;-63
2023/04/24 06:55:23;;;;;;;0.20;0.20;;;;;;;16.60;73.76;99799.69;4996083;28;20030;-63
2023/04/24 06:57:51;;;;;;;0.20;0.20;;;;;;;16.48;74.64;99789.75;4996672;28;20124;-63
2023/04/24 07:00:17;;;;;;;0.20;0.20;;;;;;;16.54;75.98;99784.50;4996004;28;20069;-63
2023/04/24 07:02:43;;;;;;;0.20;0.20;;;;;;;16.43;77.78;99787.38;4996257;28;20076;-63
2023/04/24 07:05:11;;;;;;;0.20;0.20;;;;;;;16.41;78.83;99774.97;4999261;28;20022;-66
2023/04/24 07:07:39;;;;;;;0.20;0.20;;;;;;;16.46;79.06;99760.50;4998915;28;20097;-64
2023/04/24 07:10:08;;;;;;;0.20;0.20;;;;;;;16.40;79.61;99770.53;4996617;28;20022;-62
2023/04/24 07:12:36;;;;;;;0.20;0.20;;;;;;;16.42;79.75;99787.78;4996520;28;20417;-62
2023/04/24 07:15:04;;;;;;;0.20;0.20;;;;;;;16.45;78.88;99782.13;4996012;28;20030;-62
2023/04/24 07:21:11;;;;;;;0.20;0.20;;;;;;;16.77;77.79;99765.03;4932045;29;20131;-63
2023/04/24 07:23:41;;;;;;;0.20;0.20;;;;;;;16.84;76.98;99760.59;4956022;28;20038;-62
2023/04/24 07:26:46;;;;;;;0.20;0.20;;;;;;;17.09;75.39;99741.47;4995890;28;20044;-64
2023/04/24 07:29:59;;;;;;;0.20;0.20;;;;;;;17.66;72.52;99740.78;5012998;28;20057;-63
2023/04/24 07:32:34;;;;;;;0.20;0.20;;;;;;;17.62;73.97;99737.22;4997895;28;20042;-63
2023/04/24 07:35:06;;;;;;;0.20;0.20;;;;;;;17.78;72.41;99720.56;4999042;28;20041;-63
2023/04/24 07:48:54;;;;;;;0.20;0.20;;;;;;;18.32;68.00;99703.69;4934745;28;20039;-63
2023/04/24 07:51:22;;;;;;;0.20;0.20;;;;;;;18.31;66.38;99699.25;5007134;23;20491;-63
2023/04/24 07:53:48;;;;;;;0.20;0.20;;;;;;;18.62;65.21;99701.97;5038116;28;20036;-65
2023/04/24 07:56:14;;;;;;;0.20;0.20;;;;;;;18.56;65.53;99703.69;5038875;28;20029;-65
2023/04/24 07:58:39;;;;;;;0.20;0.20;;;;;;;18.76;65.99;99710.19;5038250;28;20467;-65
2023/04/24 08:01:05;;;;;;;0.20;0.20;;;;;;;18.62;66.22;99712.44;5038162;28;20040;-65
2023/04/24 08:03:34;;;;;;;0.20;0.20;;;;;;;18.55;67.12;99721.81;5038067;28;20036;-65
2023/04/24 08:05:59;;;;;;;0.20;0.20;;;;;;;18.55;67.80;99728.25;5038075;28;20033;-65
2023/04/24 08:08:25;;;;;;;0.20;0.20;;;;;;;18.38;69.50;99720.88;5037977;28;20056;-64
2023/04/24 08:10:50;;;;;;;0.20;0.20;;;;;;;18.35;70.11;99724.53;5037917;28;20033;-64
2023/04/24 08:13:19;;;;;;;0.20;0.20;;;;;;;17.90;71.52;99716.38;5038104;28;20391;-63
2023/04/24 08:15:45;;;;;;;0.20;0.20;;;;;;;17.95;73.07;99713.09;5037791;28;20033;-64
2023/04/24 08:18:23;;;;;;;;;;;;;;;;;;;;;
2023/04/24 08:20:49;;;;;;;0.20;0.20;;;;;;;17.50;76.91;99704.03;5056175;28;20052;-64
2023/04/24 08:23:17;;;;;;;0.20;0.20;;;;;;;17.37;78.07;99705.81;5038034;28;20117;-64
2023/04/24 08:25:42;;;;;;;0.20;0.20;;;;;;;17.49;78.78;99722.13;5037690;28;20029;-63
2023/04/24 08:28:09;;;;;;;0.20;0.20;;;;;;;17.43;79.60;99721.81;5037645;28;20078;-65
2023/04/24 08:30:35;;;;;;;0.20;0.20;;;;;;;17.21;82.31;99726.88;5037688;28;20035;-64
2023/04/24 08:33:03;;;;;;;0.20;0.20;;;;;;;17.03;84.04;99727.06;5037794;28;20103;-64
2023/04/24 08:35:28;;;;;;;0.20;0.20;;;;;;;17.03;84.81;99720.66;5038257;28;20037;-63
2023/04/24 08:37:54;;;;;;;0.20;0.20;;;;;;;16.94;85.62;99728.78;5037758;28;20094;-63
2023/04/24 08:40:33;;;;;;;0.20;0.20;;;;;;;16.95;85.93;99736.81;5037637;28;20025;-63
2023/04/24 08:43:01;;;;;;;0.20;0.20;;;;;;;17.02;85.53;99745.16;5036538;28;20025;-63
2023/04/24 08:45:30;;;;;;;0.20;0.20;;;;;;;16.90;85.90;99740.06;5037256;28;20025;-63
2023/04/24 08:47:58;;;;;;;0.20;0.20;;;;;;;17.02;85.41;99741.53;5037452;28;20090;-62
2023/04/24 08:50:24;;;;;;;0.20;0.20;;;;;;;17.04;85.12;99736.28;5037500;28;20024;-63
2023/04/24 08:52:53;;;;;;;0.20;0.20;;;;;;;17.10;84.18;99740.25;5037792;28;20036;-64
2023/04/24 08:55:20;;;;;;;0.20;0.20;;;;;;;16.94;85.31;99748.47;5055416;28;20028;-64
2023/04/24 08:57:53;;;;;;;0.20;0.20;;;;;;;16.94;86.33;99740.03;5055215;28;20032;-61
2023/04/24 09:00:20;;;;;;;0.20;0.20;;;;;;;17.24;84.48;99737.28;5037029;28;20031;-65
2023/04/24 09:02:52;;;;;;;0.20;0.20;;;;;;;17.06;85.83;99735.91;5037347;28;20111;-65
2023/04/24 09:05:21;;;;;;;0.20;0.20;;;;;;;17.15;85.51;99733.38;5037555;28;20047;-63
2023/04/24 09:07:56;;;;;;;0.20;0.20;;;;;;;17.04;86.91;99733.47;5037302;28;20032;-61
2023/04/24 09:10:25;;;;;;;0.20;0.20;;;;;;;17.12;85.73;99737.81;5036879;28;20089;-60
2023/04/24 09:12:53;;;;;;;0.20;0.20;;;;;;;17.12;86.94;99740.63;5037198;28;20340;-62
2023/04/24 09:15:22;;;;;;;0.20;0.20;;;;;;;17.14;86.98;99738.19;5036845;28;20021;-62
2023/04/24 09:17:50;;;;;;;0.20;0.20;;;;;;;17.17;88.23;99731.75;5036850;28;20033;-63
2023/04/24 09:20:18;;;;;;;0.20;0.20;;;;;;;17.25;90.29;99722.00;5037034;28;20392;-63
2023/04/24 09:22:46;;;;;;;0.20;0.20;;;;;;;17.15;93.34;99731.38;5036750;28;20102;-63
2023/04/24 09:25:17;;;;;;;0.20;0.20;;;;;;;17.28;93.11;99726.78;5036710;28;20060;-63
2023/04/24 09:27:46;;;;;;;0.20;0.20;;;;;;;17.86;90.61;99720.47;5036750;28;20033;-62
2023/04/24 09:30:12;;;;;;;0.20;0.20;;;;;;;18.10;88.04;99724.13;5036550;28;20029;-63
2023/04/24 09:32:37;;;;;;;0.20;0.20;;;;;;;18.83;83.42;99726.19;5036494;28;20036;-63
2023/04/24 09:35:12;;;;;;;0.20;0.20;;;;;;;18.97;82.64;99719.50;5036060;28;20025;-63
2023/04/24 09:37:46;;;;;;;0.20;0.20;;;;;;;20.01;74.90;99720.97;5036149;28;20029;-64
2023/04/24 09:40:20;;;;;;;0.20;0.20;;;;;;;20.59;72.03;99724.06;5036124;28;20111;-62
2023/04/24 09:42:54;;;;;;;0.20;0.20;;;;;;;20.26;72.09;99718.38;5036444;28;20044;-64
2023/04/24 09:45:20;;;;;;;0.20;0.20;;;;;;;20.30;73.55;99729.59;5053663;28;20024;-62
2023/04/24 09:47:55;;;;;;;0.20;0.20;;;;;;;20.26;72.22;99709.91;5035267;28;20044;-63
2023/04/24 09:50:21;;;;;;;0.20;0.20;;;;;;;20.38;73.62;99714.84;5036304;28;20045;-63
2023/04/24 09:52:57;;;;;;;0.20;0.20;;;;;;;20.34;70.90;99710.50;5035913;28;20475;-63
2023/04/24 09:55:24;;;;;;;0.20;0.20;;;;;;;19.61;75.81;99699.28;5035798;28;20491;-65
2023/04/24 09:57:53;;;;;;;0.20;0.20;;;;;;;20.04;72.80;99694.69;5035578;28;20025;-64
2023/04/24 10:00:23;;;;;;;0.20;0.20;;;;;;;19.87;73.84;99694.66;5035844;28;20033;-63
2023/04/24 10:02:58;;;;;;;0.20;0.20;;;;;;;19.50;74.12;99703.53;5053808;28;20024;-62
2023/04/24 10:05:37;;;;;;;0.10;0.10;;;;;;;19.73;74.41;99697.00;5035820;28;20051;-62
2023/04/24 10:08:04;;;;;;;0.10;0.10;;;;;;;19.91;73.27;99719.19;5035790;28;20486;-63
2023/04/24 10:10:30;;;;;;;0.20;0.20;;;;;;;20.67;70.63;99714.97;5035688;28;20068;-64
2023/04/24 10:12:59;;;;;;;0.20;0.20;;;;;;;21.48;65.99;99723.72;5035703;28;20032;-64
2023/04/24 10:15:26;;;;;;;0.20;0.20;;;;;;;21.53;65.10;99723.16;5035350;28;20086;-64
2023/04/24 10:17:52;;;;;;;0.20;0.20;;;;;;;21.14;65.40;99725.81;5036116;28;20033;-65
2023/04/24 10:20:31;;;;;;;0.20;0.20;;;;;;;21.00;66.75;99731.06;5035377;28;20035;-64
2023/04/24 10:22:59;;;;;;;0.20;0.20;;;;;;;21.45;66.71;99740.31;5053628;28;20031;-62
2023/04/24 10:25:30;;;;;;;0.20;0.20;;;;;;;21.09;66.63;99739.69;5053711;28;20434;-63
2023/04/24 10:28:00;;;;;;;0.20;0.20;;;;;;;20.49;70.01;99736.41;5035854;28;20052;-61
2023/04/24 10:30:28;;;;;;;0.15;0.15;;;;;;;19.51;75.88;99731.31;5035434;28;20087;-62
2023/04/24 10:32:54;;;;;;;0.20;0.20;;;;;;;19.30;77.63;99738.19;5034951;28;20048;-63
2023/04/24 10:35:26;;;;;;;0.20;0.20;;;;;;;19.14;82.81;99745.75;5035303;28;20064;-61
2023/04/24 10:38:09;;;;;;;0.20;0.20;;;;;;;18.79;83.65;99726.22;5035401;28;20052;-61
2023/04/24 10:40:43;;;;;;;0.20;0.20;;;;;;;18.98;82.58;99735.19;5035812;28;20286;-62
2023/04/24 10:43:17;;;;;;;0.20;0.20;;;;;;;18.92;82.86;99728.44;5035513;28;20366;-64
2023/04/24 10:46:01;;;;;;;0.20;0.20;;;;;;;18.87;85.42;99743.03;5035314;28;20121;-63
2023/04/24 10:48:27;;;;;;;0.20;0.20;;;;;;;18.49;86.68;99737.63;5053030;28;20039;-65
2023/04/24 10:50:55;;;;;;;0.20;0.20;;;;;;;18.47;89.00;99742.84;5052898;28;20088;-64
2023/04/24 10:53:29;;;;;;;0.20;0.20;;;;;;;18.50;88.63;99739.19;5035463;28;20417;-63
2023/04/24 10:56:09;;;;;;;0.20;0.20;;;;;;;19.13;86.17;99730.88;5034791;28;20025;-65
2023/04/24 10:58:49;;;;;;;0.20;0.20;;;;;;;19.68;77.87;99735.00;5035193;28;20032;-64
2023/04/24 11:01:26;;;;;;;0.20;0.20;;;;;;;20.57;72.90;99732.97;5035710;28;20035;-62
2023/04/24 11:04:03;;;;;;;0.20;0.20;;;;;;;20.98;66.30;99739.19;5035160;28;20024;-64
2023/04/24 11:06:40;;;;;;;0.20;0.20;;;;;;;21.08;64.63;99738.13;5037187;28;20043;-61
2023/04/24 11:09:18;;;;;;;0.20;0.20;;;;;;;21.33;63.64;99743.13;5039610;28;20029;-62
2023/04/24 11:11:50;;;;;;;0.20;0.20;;;;;;;21.59;61.94;99732.69;5039117;28;20067;-62
2023/04/24 11:14:16;;;;;;;0.20;0.20;;;;;;;21.90;60.82;99747.91;5038900;28;20021;-63
2023/04/24 11:16:44;;;;;;;0.20;0.20;;;;;;;22.00;57.55;99750.84;5038731;28;20033;-64
2023/04/24 11:19:25;;;;;;;0.20;0.20;;;;;;;22.47;57.75;99746.13;5038874;28;20021;-62
2023/04/24 11:21:57;;;;;;;0.20;0.20;;;;;;;22.18;57.70;99756.81;5038847;28;20028;-63
2023/04/24 11:24:26;;;;;;;0.20;0.20;;;;;;;21.87;58.69;99768.63;5039001;28;20021;-61
2023/04/24 11:26:56;;;;;;;0.10;0.10;;;;;;;22.14;56.53;99758.94;5039071;28;20523;-62
2023/04/24 11:29:40;;;;;;;0.20;0.20;;;;;;;22.42;53.59;99771.41;5038859;28;20032;-61
2023/04/24 11:32:26;;;;;;;0.20;0.20;;;;;;;22.42;52.44;99758.03;5038497;28;20040;-64
2023/04/24 11:34:56;;;;;;;0.10;0.10;;;;;;;22.43;55.68;99756.81;5038660;28;20470;-61
2023/04/24 11:37:27;;;;;;;0.20;0.20;;;;;;;22.66;55.42;99752.03;5038488;28;20029;-62
2023/04/24 11:40:00;;;;;;;0.20;0.20;;;;;;;22.86;54.40;99754.59;5037948;28;20025;-63
2023/04/24 11:42:31;;;;;;;;;;;;;;;21.64;57.15;99749.13;5038419;28;20102;-64
2023/04/24 11:45:02;;;;;;;0.20;0.20;;;;;;;22.27;56.50;99754.09;5038890;28;19908;-63
2023/04/24 11:47:29;;;;;;;0.10;0.10;;;;;;;22.68;53.27;99749.50;5038827;28;20040;-63
2023/04/24 11:49:55;;;;;;;0.13;0.13;;;;;;;23.00;53.08;99762.63;5038386;28;20068;-63
2023/04/24 11:52:21;;;;;;;0.10;0.10;;;;;;;23.12;51.64;99749.69;5037989;28;20502;-62
2023/04/24 11:54:50;;;;;;;0.17;0.17;;;;;;;23.13;52.34;99754.09;5038330;28;20025;-63